Aérodrome :
LOGIN :

S'inscrire | Disclaimer

   EN    FR    IT 

 










Légende :    VFR   VFR Marginal   IFR   IFR Intensif   IFR Très Intensif
Visi : 
Plafond : 
>= 8 km
>= 3000ft
5 à 8 km
1000 à 3000 ft
1500m à 5 km
500 à 1000 ft
800 à 1500m
200 à 500 ft
< 800m
< 200 ft
Symboles :   Orages  Brouillard  Fortes neiges  Fortes précipitations  Vent > 20 kt
SIGMETs :   Divers  Orages  Givrage  Turbulence  Onde Orograph.  Cendres Volcan.







- Altitude de l'aérodrome : 112 ft
- Code IATA : KIR


EIKY - Kerry Farranfore

DERNIER METAR :
  • 220830Z 14014KT CAVOK 13/09 Q0998

METARs EXPIRÉS :
  • 220800Z 15015KT CAVOK 12/09 Q0998
  • 220730Z 15016KT CAVOK 12/08 Q0998
  • 220700Z 15015KT CAVOK 11/08 Q0998
  • 220630Z 14017KT CAVOK 10/08 Q0998
  • 220600Z 15017KT CAVOK 10/07 Q0999

TAF TAF EIKY
Valide du 22 à 09h jusqu'au 22 à 18h UTC


220800Z 2209/2218 14018G30KT 9999 FEW009 SCT040
Pas de NOTAMs connus pour ce terrain.



MET'MAP, la Météo Aéronautique d'un coup d'oeil ! - Copyright ORBIFLY Décembre 2007 - Disclaimer

ORBIFLY MET'MAP TEAM :

Programmation & Développement : Alexandra Zaïnal
Conception & Développement : Baudouin d'Aumeries
Co-Programmation & Développement : Marc-Olivier Méhu
Soutien technique & logistique : Manuel Goepfert

Contact : metmap@orbifly.com




SOURCES & CREDITS :

   NOAA